Columbia Falls, Montana
Current Conditions -  °F | °C
As of 11:55 PM on Friday 19 Dec 2014 (Local Time) from KGPI Reporting Station
Overcast Overcast  
Wind Chill: 28°   Ceiling: 6500
Heat Index: 35°   Visibility: 10mi
Dew Point: 33°   Wind: 9mph
Humidity: 92%   Direction: 160°SSE
Pressure: 29.95"   Gusts: NA
Location:  48.37°N, 114.18°W
Report Text: KGPI 200655Z 16008KT 10SM FEW041 SCT049 OVC065 02/01 A2995 RMK AO2 SLP164 T00170006 400281011 $
Loading
Personal Weather Stations






























Interactive Weather Map New forecast layout! Learn more

10-Day Weather Forecast

Advertisements
Track Severe Weather on mobile